Time;durP1;ratioP1;P1;durP2;ratioP2;P2;SDS_P1;SDS_P2;PMS_P1;PMS_P2;Temp;Humidity;BMP_temperature;BMP_pressure;BME280_temperature;BME280_humidity;BME280_pressure;Samples;Min_cycle;Max_cycle;Signal;HPM_P1;HPM_P2
2021/05/17 00:02:26;;;;;;;5.25;3.90;;;;;;;18.93;49.54;98493.28;1668788;85;21606;-69
2021/05/17 00:04:53;;;;;;;6.58;3.90;;;;;;;18.87;48.73;98492.15;1655679;85;21612;-69
2021/05/17 00:07:20;;;;;;;10.18;4.67;;;;;;;18.86;49.09;98489.67;1650703;87;21133;-70
2021/05/17 00:09:48;;;;;;;6.87;3.98;;;;;;;18.82;50.61;98488.73;1650964;85;21074;-69
2021/05/17 00:12:17;;;;;;;7.75;4.45;;;;;;;18.77;51.22;98481.78;1654295;85;21094;-70
2021/05/17 00:14:44;;;;;;;7.00;4.35;;;;;;;18.71;52.30;98487.90;1678201;85;21133;-70
2021/05/17 00:17:11;;;;;;;6.15;4.50;;;;;;;18.63;52.15;98478.64;1677275;85;21090;-69
2021/05/17 00:19:39;;;;;;;6.70;4.62;;;;;;;18.02;53.28;98394.25;1672608;85;21126;-70
2021/05/17 00:22:09;;;;;;;5.95;4.35;;;;;;;18.51;53.65;98476.46;1650122;86;21086;-69
2021/05/17 00:24:36;;;;;;;7.58;4.70;;;;;;;18.43;54.50;98480.61;1672693;86;21585;-69
2021/05/17 00:27:05;;;;;;;6.03;5.05;;;;;;;18.36;54.88;98478.36;1673564;86;21046;-69
2021/05/17 00:29:32;;;;;;;6.60;4.17;;;;;;;18.31;55.32;98479.45;1673471;86;21094;-69
2021/05/17 00:31:59;;;;;;;10.30;4.03;;;;;;;18.28;55.38;98479.84;1671596;86;21150;-70
2021/05/17 00:34:26;;;;;;;6.17;4.00;;;;;;;18.26;55.01;98475.17;1649377;86;21070;-70
2021/05/17 00:36:53;;;;;;;5.15;4.10;;;;;;;18.26;54.61;98467.14;1672929;86;21098;-69
2021/05/17 00:39:21;;;;;;;5.35;4.12;;;;;;;18.25;53.93;98465.48;1673164;86;21078;-69
2021/05/17 00:41:49;;;;;;;5.22;4.30;;;;;;;18.25;53.19;98464.98;1671501;86;21090;-70
2021/05/17 00:44:16;;;;;;;6.45;3.92;;;;;;;18.24;52.44;98467.34;1672276;86;21098;-70
2021/05/17 00:46:43;;;;;;;5.90;4.03;;;;;;;18.24;52.23;98484.73;1669253;86;21027;-68
2021/05/17 00:49:11;;;;;;;7.92;4.55;;;;;;;18.25;52.31;98484.20;1656691;86;21146;-69
2021/05/17 00:51:38;;;;;;;8.45;4.80;;;;;;;18.26;52.81;98482.70;1670542;86;21054;-69
2021/05/17 00:54:04;;;;;;;7.12;4.62;;;;;;;18.24;53.09;98466.52;1645305;86;21827;-69
2021/05/17 00:56:33;;;;;;;8.23;4.90;;;;;;;18.23;52.89;98468.34;1673103;86;21114;-69
2021/05/17 00:59:00;;;;;;;7.22;5.05;;;;;;;18.18;52.92;98479.64;1668717;86;21602;-69
2021/05/17 01:01:27;;;;;;;7.75;4.60;;;;;;;18.20;52.74;98477.26;1649079;86;21114;-69
2021/05/17 01:03:54;;;;;;;7.30;5.10;;;;;;;18.20;53.44;98474.58;1648580;86;21610;-69
2021/05/17 01:06:25;;;;;;;7.15;4.97;;;;;;;18.19;53.89;98472.42;1624337;86;21550;-69
2021/05/17 01:09:01;;;;;;;12.82;5.08;;;;;;;18.17;54.20;98460.58;1658989;86;21694;-69
2021/05/17 01:11:28;;;;;;;5.83;4.92;;;;;;;18.14;54.39;98442.21;1672622;86;21095;-69
2021/05/17 01:14:00;;;;;;;8.10;5.20;;;;;;;18.08;54.48;98434.97;1671269;86;21071;-69
2021/05/17 01:16:27;;;;;;;7.37;4.80;;;;;;;18.05;54.80;98432.66;1672614;86;21079;-69
2021/05/17 01:18:54;;;;;;;10.80;5.95;;;;;;;18.03;54.90;98440.05;1660220;86;21082;-69
2021/05/17 01:21:25;;;;;;;7.08;4.53;;;;;;;17.98;56.35;98443.77;1655401;86;21106;-68
2021/05/17 01:23:55;;;;;;;6.35;4.58;;;;;;;17.94;57.35;98441.16;1654534;86;21090;-69
2021/05/17 01:26:27;;;;;;;6.72;4.33;;;;;;;17.91;57.15;98442.33;1624188;88;21062;-69
2021/05/17 01:29:00;;;;;;;8.80;5.30;;;;;;;17.77;57.71;98455.23;1636019;87;21089;-69
2021/05/17 01:31:26;;;;;;;7.70;5.53;;;;;;;17.67;58.61;98477.73;1680427;84;21079;-68
2021/05/17 01:33:54;;;;;;;7.53;5.10;;;;;;;17.61;58.28;98471.78;1696848;84;21102;-69
2021/05/17 01:36:23;;;;;;;9.15;5.60;;;;;;;17.59;58.08;98476.48;1632625;87;21101;-69
2021/05/17 01:38:55;;;;;;;9.28;5.42;;;;;;;17.56;58.54;98482.20;1639952;86;21105;-68
2021/05/17 01:41:25;;;;;;;9.40;5.72;;;;;;;17.55;58.39;98467.17;1648079;87;21038;-69
2021/05/17 01:43:55;;;;;;;7.92;5.85;;;;;;;17.57;58.54;98472.33;1683058;84;21022;-69
2021/05/17 01:46:26;;;;;;;10.13;6.62;;;;;;;17.56;58.61;98470.66;1651710;86;21593;-69
2021/05/17 01:48:56;;;;;;;7.42;5.97;;;;;;;17.53;58.60;98462.51;1648269;86;21078;-69
2021/05/17 01:51:24;;;;;;;9.28;5.70;;;;;;;17.53;58.52;98472.71;1685727;84;21241;-69
2021/05/17 01:53:53;;;;;;;8.88;5.78;;;;;;;17.49;58.78;98468.75;1701719;84;21055;-68
2021/05/17 01:56:20;;;;;;;8.03;5.95;;;;;;;17.44;59.86;98479.17;1647787;87;21121;-69
2021/05/17 01:58:47;;;;;;;9.63;5.83;;;;;;;17.46;60.31;98482.47;1692299;84;21507;-69
2021/05/17 02:01:16;;;;;;;10.98;5.70;;;;;;;17.61;60.60;98482.48;1706432;84;21129;-69
2021/05/17 02:03:45;;;;;;;7.33;5.30;;;;;;;17.56;61.03;98488.03;1660853;86;21058;-69
2021/05/17 02:06:15;;;;;;;9.40;6.50;;;;;;;17.42;61.36;98491.87;1683358;84;21617;-69
2021/05/17 02:08:46;;;;;;;8.55;6.08;;;;;;;17.29;62.12;98488.50;1709195;84;21062;-69
2021/05/17 02:11:14;;;;;;;8.90;6.25;;;;;;;17.20;62.56;98481.58;1708488;84;21058;-69
2021/05/17 02:13:43;;;;;;;9.00;6.17;;;;;;;17.15;63.26;98478.11;1706927;84;21614;-69
2021/05/17 02:16:15;;;;;;;9.75;6.60;;;;;;;17.05;63.98;98481.55;1703024;84;21784;-69
2021/05/17 02:18:47;;;;;;;7.30;6.10;;;;;;;17.06;64.15;98471.19;1659873;86;21054;-69
2021/05/17 02:21:16;;;;;;;9.10;6.20;;;;;;;17.18;64.20;98475.06;1670559;86;21732;-71
2021/05/17 02:23:44;;;;;;;10.03;6.97;;;;;;;17.21;64.59;98473.87;1666197;84;21082;-70
2021/05/17 02:26:12;;;;;;;10.28;6.97;;;;;;;17.15;65.27;98462.08;1682308;85;21061;-69
2021/05/17 02:28:40;;;;;;;8.65;6.65;;;;;;;17.12;65.66;98448.25;1650652;85;21054;-69
2021/05/17 02:31:08;;;;;;;8.03;6.35;;;;;;;17.07;66.30;98432.76;1678190;85;21133;-70
2021/05/17 02:33:36;;;;;;;11.22;6.72;;;;;;;16.96;66.57;98422.55;1675902;85;21597;-70
2021/05/17 02:36:04;;;;;;;9.65;6.75;;;;;;;16.81;67.06;98418.48;1665778;85;21614;-69
2021/05/17 02:38:32;;;;;;;10.32;6.30;;;;;;;16.87;67.71;98415.91;1675924;85;21042;-69
2021/05/17 02:40:59;;;;;;;9.15;6.50;;;;;;;16.89;67.94;98415.72;1685238;85;21077;-69
2021/05/17 02:43:26;;;;;;;13.45;7.17;;;;;;;16.86;67.86;98408.89;1652394;85;21066;-69
2021/05/17 02:46:02;;;;;;;8.63;6.22;;;;;;;16.86;67.68;98410.23;1643256;87;21073;-69
2021/05/17 02:48:30;;;;;;;7.95;5.78;;;;;;;16.90;67.39;98400.55;1656778;85;21052;-70
2021/05/17 02:50:58;;;;;;;11.53;5.92;;;;;;;17.02;67.26;98391.08;1645858;87;21085;-71
2021/05/17 02:53:41;;;;;;;8.60;6.50;;;;;;;16.98;67.24;98386.64;1654136;85;21131;-70
2021/05/17 02:56:11;;;;;;;11.57;6.95;;;;;;;16.90;67.60;98396.02;1646501;86;21665;-70
2021/05/17 02:58:43;;;;;;;9.85;6.50;;;;;;;16.78;67.64;98398.31;1652053;86;21015;-70
2021/05/17 03:01:23;;;;;;;11.97;6.50;;;;;;;16.68;67.62;98400.41;1646005;87;22212;-70
2021/05/17 03:03:51;;;;;;;9.63;6.00;;;;;;;16.73;67.58;98401.18;1655150;86;21077;-70
2021/05/17 03:06:30;;;;;;;11.03;6.35;;;;;;;16.81;67.54;98406.46;1670918;85;21039;-69
2021/05/17 03:09:01;;;;;;;9.53;5.85;;;;;;;16.79;67.64;98398.64;1683471;85;21110;-70
2021/05/17 03:11:32;;;;;;;11.78;6.70;;;;;;;16.70;68.14;98398.37;1666221;85;21586;-69
2021/05/17 03:13:59;;;;;;;11.28;6.35;;;;;;;16.62;68.37;98393.11;1634458;86;21105;-69
2021/05/17 03:16:26;;;;;;;9.10;6.17;;;;;;;16.59;68.83;98401.50;1648614;87;21050;-70
2021/05/17 03:18:55;;;;;;;9.40;5.78;;;;;;;16.69;68.22;98396.73;1633706;88;21658;-73
2021/05/17 03:21:24;;;;;;;11.45;6.33;;;;;;;16.63;68.32;98388.92;1670195;85;21101;-73
2021/05/17 03:23:52;;;;;;;10.58;5.87;;;;;;;16.55;68.44;98388.49;1655703;85;21124;-73
2021/05/17 03:26:23;;;;;;;10.05;6.47;;;;;;;16.44;68.61;98381.42;1672710;84;21073;-72
2021/05/17 03:28:49;;;;;;;11.20;7.28;;;;;;;16.40;68.78;98375.61;1685625;85;21030;-72
2021/05/17 03:31:17;;;;;;;15.25;7.60;;;;;;;16.43;68.99;98371.76;1694859;83;21613;-72
2021/05/17 03:33:43;;;;;;;14.33;7.65;;;;;;;16.32;69.65;98357.84;1703379;83;21526;-72
2021/05/17 03:36:09;;;;;;;11.88;7.78;;;;;;;16.17;70.13;98348.95;1719172;83;21598;-72
2021/05/17 03:38:38;;;;;;;14.35;7.40;;;;;;;16.14;70.60;98332.81;1719084;83;21118;-72
2021/05/17 03:41:07;;;;;;;13.30;7.72;;;;;;;16.13;70.91;98321.81;1715356;83;21075;-73
2021/05/17 03:43:35;;;;;;;12.43;7.47;;;;;;;16.01;71.49;98309.41;1697721;83;21090;-73
2021/05/17 03:46:02;;;;;;;9.98;6.83;;;;;;;15.81;72.11;98274.39;1715626;83;21054;-73
2021/05/17 03:48:29;;;;;;;9.73;7.15;;;;;;;15.92;72.22;98294.97;1718285;83;21046;-73
2021/05/17 03:50:56;;;;;;;9.18;6.83;;;;;;;15.87;72.49;98292.86;1700773;83;21054;-73
2021/05/17 03:53:23;;;;;;;11.43;6.58;;;;;;;15.77;72.45;98306.38;1690310;85;21546;-72
2021/05/17 03:55:50;;;;;;;11.60;5.92;;;;;;;15.69;72.37;98294.42;1718320;83;21673;-72
2021/05/17 03:58:16;;;;;;;10.38;5.65;;;;;;;15.75;72.07;98300.38;1719242;83;21113;-73
2021/05/17 04:00:43;;;;;;;9.58;6.85;;;;;;;15.75;71.94;98300.38;1718126;83;21055;-73
2021/05/17 04:03:15;;;;;;;9.33;6.67;;;;;;;15.67;71.96;98293.79;1692890;83;21073;-73
2021/05/17 04:12:32;;;;;;;10.13;6.30;;;;;;;15.67;71.85;98287.13;1700990;83;21106;-72
2021/05/17 04:13:40;;;;;;;8.13;6.08;;;;;;;15.53;71.87;98284.20;1690756;85;21046;-74
2021/05/17 04:16:06;;;;;;;8.98;5.80;;;;;;;15.46;72.10;98293.91;1690636;85;21117;-73
2021/05/17 04:18:33;;;;;;;7.40;5.90;;;;;;;15.55;71.94;98287.52;1697549;83;21050;-72
2021/05/17 04:20:59;;;;;;;9.38;6.12;;;;;;;15.57;72.08;98296.67;1718648;83;21043;-72
2021/05/17 04:23:26;;;;;;;7.65;6.10;;;;;;;15.53;72.18;98296.70;1704915;83;21593;-72
2021/05/17 04:25:54;;;;;;;9.48;5.33;;;;;;;15.53;72.15;98286.05;1688132;84;21668;-72
2021/05/17 04:28:21;;;;;;;8.85;5.92;;;;;;;15.63;71.90;98279.98;1693720;84;21051;-73
2021/05/17 04:30:47;;;;;;;7.60;6.30;;;;;;;15.63;71.78;98285.83;1706575;84;21106;-72
2021/05/17 04:33:13;;;;;;;7.80;5.35;;;;;;;15.60;71.62;98288.83;1681261;84;21034;-68
2021/05/17 04:35:40;;;;;;;6.95;5.30;;;;;;;15.60;71.51;98290.16;1699912;84;21063;-68
2021/05/17 04:38:06;;;;;;;8.20;5.20;;;;;;;15.68;71.44;98289.61;1704847;84;21567;-67
2021/05/17 04:40:33;;;;;;;7.67;5.42;;;;;;;15.83;71.25;98294.20;1708407;84;21567;-68
2021/05/17 04:42:59;;;;;;;9.10;6.00;;;;;;;15.86;70.82;98299.19;1685534;84;21027;-67
2021/05/17 04:45:26;;;;;;;7.67;5.50;;;;;;;15.87;70.42;98301.67;1697417;84;21042;-67
2021/05/17 04:47:54;;;;;;;8.00;5.47;;;;;;;15.91;70.34;98311.97;1697446;84;21115;-67
2021/05/17 04:50:22;;;;;;;7.55;5.22;;;;;;;16.04;69.93;98317.55;1680650;84;21118;-67
2021/05/17 04:52:48;;;;;;;12.23;6.70;;;;;;;16.13;69.74;98323.14;1696727;84;21094;-69
2021/05/17 04:55:15;;;;;;;9.98;7.15;;;;;;;16.17;69.55;98332.44;1680768;85;21134;-68
2021/05/17 04:57:42;;;;;;;9.20;6.92;;;;;;;16.20;69.26;98324.09;1698169;84;21065;-68
2021/05/17 05:00:10;;;;;;;9.10;6.17;;;;;;;16.19;69.38;98322.43;1705814;84;21098;-68
2021/05/17 05:02:37;;;;;;;9.65;6.65;;;;;;;16.29;69.39;98324.86;1684280;84;21581;-68
2021/05/17 05:05:06;;;;;;;10.50;6.53;;;;;;;16.38;69.36;98322.44;1692343;84;21062;-68
2021/05/17 05:07:33;;;;;;;9.38;7.15;;;;;;;16.34;69.54;98319.81;1686458;84;21101;-68
2021/05/17 05:09:59;;;;;;;9.00;6.65;;;;;;;16.30;69.74;98312.34;1699860;84;21570;-68
2021/05/17 05:12:26;;;;;;;11.22;6.70;;;;;;;16.28;69.73;98305.86;1680705;85;21598;-68
2021/05/17 05:14:52;;;;;;;7.17;6.17;;;;;;;16.37;69.60;98290.09;1701505;84;21637;-68
2021/05/17 05:17:19;;;;;;;7.80;6.55;;;;;;;16.45;69.12;98293.19;1708993;84;21146;-68
2021/05/17 05:19:45;;;;;;;8.15;6.20;;;;;;;16.43;69.36;98285.86;1709394;84;21039;-67
2021/05/17 05:22:12;;;;;;;8.98;6.05;;;;;;;16.38;69.83;98273.57;1709305;84;21071;-68
2021/05/17 05:24:39;;;;;;;12.60;7.22;;;;;;;16.42;70.04;98276.70;1700393;83;21047;-68
2021/05/17 05:27:12;;;;;;;11.12;7.85;;;;;;;16.53;70.06;98273.60;1699210;84;21554;-68
2021/05/17 05:29:59;;;;;;;13.28;7.80;;;;;;;16.52;70.21;98272.78;1635790;87;21130;-68
2021/05/17 05:32:38;;;;;;;10.65;7.35;;;;;;;16.52;70.54;98267.45;1679872;85;21035;-68
2021/05/17 05:35:03;;;;;;;8.15;6.85;;;;;;;16.59;70.58;98257.38;1636261;87;21078;-68
2021/05/17 05:37:31;;;;;;;8.23;6.70;;;;;;;16.74;70.31;98250.20;1682798;84;21611;-69
2021/05/17 05:40:05;;;;;;;10.90;7.58;;;;;;;16.75;69.90;98253.69;1696882;84;21570;-69
2021/05/17 05:42:30;;;;;;;10.65;7.28;;;;;;;16.74;69.81;98250.20;1636222;87;21043;-69
2021/05/17 05:44:56;;;;;;;11.10;6.67;;;;;;;16.75;69.71;98248.34;1680953;85;21594;-69
2021/05/17 05:47:24;;;;;;;12.13;7.70;;;;;;;16.79;69.59;98241.13;1707381;84;21091;-69
2021/05/17 05:49:51;;;;;;;10.32;7.28;;;;;;;16.90;69.33;98230.99;1709350;84;21146;-69
2021/05/17 05:52:18;;;;;;;9.23;6.33;;;;;;;16.90;69.32;98232.33;1709220;84;21090;-69
2021/05/17 05:54:45;;;;;;;7.90;6.15;;;;;;;16.87;68.91;98229.00;1709400;84;21098;-69
2021/05/17 05:57:14;;;;;;;10.20;5.90;;;;;;;16.81;68.59;98232.41;1707376;84;21078;-69
2021/05/17 05:59:40;;;;;;;8.10;6.72;;;;;;;16.80;68.98;98223.26;1709337;84;21633;-69
2021/05/17 06:02:06;;;;;;;9.85;7.55;;;;;;;16.86;69.30;98220.66;1683446;84;21090;-68
2021/05/17 06:04:33;;;;;;;8.93;7.17;;;;;;;16.85;69.67;98208.36;1680880;85;21074;-68
2021/05/17 06:06:59;;;;;;;9.40;7.03;;;;;;;16.82;69.67;98204.70;1682979;84;21031;-68
2021/05/17 06:09:26;;;;;;;9.48;7.67;;;;;;;16.75;69.67;98211.80;1680896;85;21445;-68
2021/05/17 06:11:55;;;;;;;10.05;8.18;;;;;;;16.76;69.79;98196.10;1652934;86;21066;-69
2021/05/17 06:14:23;;;;;;;9.10;7.42;;;;;;;16.74;70.07;98198.64;1670474;86;21189;-69
2021/05/17 06:16:52;;;;;;;10.13;8.08;;;;;;;16.71;70.22;98193.16;1669696;86;21570;-69
2021/05/17 06:19:19;;;;;;;9.63;6.80;;;;;;;16.66;70.36;98178.21;1653520;86;21348;-69
2021/05/17 06:21:46;;;;;;;8.85;6.95;;;;;;;16.65;70.57;98174.73;1670456;85;21059;-69
2021/05/17 06:24:18;;;;;;;8.30;7.37;;;;;;;16.72;70.42;98162.80;1673169;84;21114;-70
2021/05/17 06:26:43;;;;;;;8.90;7.55;;;;;;;16.67;70.40;98161.19;1666158;85;21069;-68
2021/05/17 06:29:10;;;;;;;8.45;6.90;;;;;;;16.64;70.79;98155.72;1665220;85;21900;-68
2021/05/17 06:31:41;;;;;;;36.73;10.75;;;;;;;16.70;70.84;98141.63;1655053;85;21125;-69
2021/05/17 06:34:07;;;;;;;16.25;7.90;;;;;;;16.74;70.99;98138.09;1657679;85;21658;-68
2021/05/17 06:36:33;;;;;;;8.88;7.05;;;;;;;16.69;71.31;98131.97;1642957;85;21065;-67
2021/05/17 06:39:02;;;;;;;11.10;7.92;;;;;;;16.71;71.51;98134.44;1682195;84;21087;-67
2021/05/17 06:41:30;;;;;;;9.60;7.28;;;;;;;16.87;71.46;98148.91;1662515;86;21625;-67
2021/05/17 06:43:57;;;;;;;10.80;8.65;;;;;;;17.01;70.94;98165.13;1677434;84;21022;-68
2021/05/17 06:46:24;;;;;;;9.70;8.15;;;;;;;17.03;71.15;98188.45;1671268;85;21534;-67
2021/05/17 06:48:53;;;;;;;8.93;7.55;;;;;;;17.15;70.94;98187.47;1676643;84;21145;-67
2021/05/17 06:51:20;;;;;;;10.65;8.58;;;;;;;17.35;70.11;98195.67;1653850;85;21549;-68
2021/05/17 06:53:50;;;;;;;10.18;7.75;;;;;;;17.41;70.06;98196.78;1655440;85;21050;-68
2021/05/17 06:58:54;;;;;;;9.55;6.60;;;;;;;17.37;69.82;98196.33;1634349;86;21586;-68
2021/05/17 07:01:17;;;;;;;8.18;6.67;;;;;;;17.40;70.12;98196.45;1641611;85;21551;-68
2021/05/17 07:03:44;;;;;;;8.48;6.95;;;;;;;17.50;69.81;98189.77;1656029;86;21563;-67
2021/05/17 07:06:11;;;;;;;8.58;6.72;;;;;;;17.48;69.90;98204.33;1659246;85;21073;-68
2021/05/17 07:11:36;;;;;;;19.27;8.40;;;;;;;17.53;69.72;98217.46;1667287;84;21058;-67
2021/05/17 07:14:00;;;;;;;7.60;5.80;;;;;;;17.67;69.37;98214.90;1627742;87;21104;-68
2021/05/17 07:16:26;;;;;;;9.70;6.42;;;;;;;17.76;69.09;98204.42;1651596;86;21082;-67
2021/05/17 07:18:52;;;;;;;6.75;5.58;;;;;;;17.77;68.87;98204.70;1677759;84;21081;-67
2021/05/17 07:23:45;;;;;;;13.18;6.12;;;;;;;17.78;69.05;98191.66;1664052;84;21122;-68
2021/05/17 07:26:18;;;;;;;6.05;5.40;;;;;;;17.92;68.84;98194.47;1655936;84;21583;-67
2021/05/17 07:28:49;;;;;;;;;;;;;;;17.88;68.69;98201.19;1720088;82;21138;-67
2021/05/17 07:31:15;;;;;;;5.75;5.08;;;;;;;17.78;68.67;98191.66;1696857;84;20228;-66
2021/05/17 07:33:42;;;;;;;5.45;4.50;;;;;;;17.73;68.72;98188.74;1703448;82;21062;-67
2021/05/17 07:36:09;;;;;;;6.72;5.10;;;;;;;17.82;68.52;98186.23;1712140;82;21084;-69
2021/05/17 07:38:36;;;;;;;6.17;4.85;;;;;;;17.88;68.54;98172.63;1633276;88;21055;-66
2021/05/17 07:41:03;;;;;;;14.58;6.08;;;;;;;18.01;69.43;98177.28;1685926;83;21086;-68
2021/05/17 07:43:30;;;;;;;7.33;4.92;;;;;;;18.25;69.34;98184.52;1692112;82;21072;-67
2021/05/17 07:45:58;;;;;;;7.00;4.80;;;;;;;18.58;68.17;98191.44;1667357;84;21086;-67
2021/05/17 07:48:25;;;;;;;6.22;4.95;;;;;;;18.76;67.24;98194.92;1689106;84;21182;-66
2021/05/17 07:50:51;;;;;;;8.33;4.70;;;;;;;18.92;67.41;98203.14;1710438;82;21009;-67
2021/05/17 07:53:18;;;;;;;5.80;4.22;;;;;;;19.15;66.73;98205.48;1705169;82;21031;-67
2021/05/17 07:55:47;;;;;;;5.80;4.72;;;;;;;19.42;65.92;98206.90;1691304;84;21094;-66
2021/05/17 07:58:12;;;;;;;6.08;4.40;;;;;;;19.71;64.56;98211.59;1706634;82;21086;-67
2021/05/17 08:00:39;;;;;;;8.05;5.20;;;;;;;19.85;63.07;98217.83;1689973;84;21090;-68
2021/05/17 08:03:05;;;;;;;7.62;4.80;;;;;;;19.88;62.94;98207.20;1695566;82;21014;-67
2021/05/17 08:05:32;;;;;;;22.40;6.67;;;;;;;19.92;63.08;98212.46;1712499;84;21051;-68
2021/05/17 08:07:58;;;;;;;6.30;4.30;;;;;;;19.94;62.95;98201.83;1641462;85;21597;-68
2021/05/17 08:10:25;;;;;;;6.53;4.40;;;;;;;19.92;62.52;98205.26;1709523;82;21058;-67
2021/05/17 08:12:51;;;;;;;6.20;4.60;;;;;;;19.87;61.81;98200.19;1699581;83;21160;-67
2021/05/17 08:15:17;;;;;;;4.40;4.00;;;;;;;19.80;62.13;98213.04;1721512;82;21061;-68
2021/05/17 08:17:43;;;;;;;7.12;4.60;;;;;;;19.86;62.62;98215.96;1718685;82;21074;-68
2021/05/17 08:20:12;;;;;;;5.70;4.35;;;;;;;20.04;62.31;98221.55;1649099;86;21606;-68
2021/05/17 08:22:38;;;;;;;4.45;3.95;;;;;;;20.14;61.84;98217.94;1691857;82;21031;-68
2021/05/17 08:25:05;;;;;;;6.28;4.10;;;;;;;20.12;61.63;98218.64;1717840;82;21578;-67
2021/05/17 08:27:32;;;;;;;5.97;4.28;;;;;;;20.15;62.19;98222.77;1713118;82;21518;-67
2021/05/17 08:29:58;;;;;;;5.95;4.12;;;;;;;20.25;61.89;98225.05;1719736;82;21669;-67
2021/05/17 08:32:24;;;;;;;5.05;4.50;;;;;;;20.33;61.45;98226.69;1719180;81;21086;-67
2021/05/17 08:34:52;;;;;;;6.75;4.78;;;;;;;20.37;61.28;98235.47;1720225;82;21106;-68
2021/05/17 08:37:19;;;;;;;5.92;4.45;;;;;;;20.40;61.40;98232.88;1711304;82;21081;-67
2021/05/17 08:39:45;;;;;;;9.03;3.83;;;;;;;20.38;60.48;98241.13;1746821;82;21051;-68
2021/05/17 08:42:12;;;;;;;5.03;3.92;;;;;;;20.32;60.87;98250.03;1737072;82;21014;-68
2021/05/17 08:44:38;;;;;;;5.95;4.00;;;;;;;20.35;61.71;98253.63;1720851;83;21050;-68
2021/05/17 08:47:05;;;;;;;7.90;4.50;;;;;;;20.52;61.46;98258.58;1700846;83;21098;-69
2021/05/17 08:49:33;;;;;;;4.85;3.62;;;;;;;20.16;60.96;98179.33;1703543;82;21180;-69
2021/05/17 08:52:01;;;;;;;8.30;4.60;;;;;;;20.77;61.55;98256.08;1725502;82;21007;-68
2021/05/17 08:54:27;;;;;;;6.47;4.20;;;;;;;20.91;61.24;98255.53;1718736;82;21117;-68
2021/05/17 08:56:53;;;;;;;6.65;4.42;;;;;;;20.98;59.66;98260.88;1650225;83;21026;-68
2021/05/17 08:59:20;;;;;;;6.45;4.25;;;;;;;20.89;59.55;98257.59;1708924;82;21379;-70
2021/05/17 09:01:47;;;;;;;6.03;4.30;;;;;;;20.90;59.88;98265.44;1702527;83;21077;-69
2021/05/17 09:04:17;;;;;;;4.22;3.77;;;;;;;20.95;60.32;98263.47;1695337;83;21102;-70
2021/05/17 09:06:59;;;;;;;5.85;4.45;;;;;;;21.04;59.74;98260.84;1705430;82;21062;-68
2021/05/17 09:09:30;;;;;;;5.17;4.40;;;;;;;21.09;60.10;98255.66;1718519;82;21114;-69
2021/05/17 09:12:06;;;;;;;11.22;4.70;;;;;;;21.20;59.94;98250.65;1702253;82;21061;-68
2021/05/17 09:14:34;;;;;;;14.50;4.55;;;;;;;21.21;59.45;98253.12;1698122;83;21042;-68
2021/05/17 09:17:04;;;;;;;8.95;4.33;;;;;;;21.18;59.14;98263.50;1709046;82;21072;-68
2021/05/17 09:19:32;;;;;;;5.17;3.90;;;;;;;21.06;58.94;98260.12;1718720;82;21046;-70
2021/05/17 09:22:16;;;;;;;4.35;3.70;;;;;;;20.93;59.30;98268.22;1720902;82;21054;-70
2021/05/17 09:24:54;;;;;;;6.47;3.70;;;;;;;20.87;59.09;98262.34;1706087;82;21352;-69
2021/05/17 09:27:30;;;;;;;4.83;3.50;;;;;;;20.70;58.82;98265.48;1687453;82;21098;-70
2021/05/17 09:30:04;;;;;;;5.78;3.72;;;;;;;20.56;59.13;98270.54;1681588;84;21126;-69
2021/05/17 09:32:32;;;;;;;34.98;7.25;;;;;;;20.53;59.31;98272.31;1668631;85;21058;-69
2021/05/17 09:35:17;;;;;;;5.30;4.22;;;;;;;20.51;59.48;98283.27;1684935;83;21411;-69
2021/05/17 09:38:05;;;;;;;6.17;3.62;;;;;;;20.50;59.21;98282.95;1655567;86;21043;-67
2021/05/17 09:40:24;;;;;;;7.30;3.25;;;;;;;20.36;58.91;98283.48;1697015;82;21557;-68
2021/05/17 09:43:05;;;;;;;6.03;3.50;;;;;;;20.26;59.87;98284.41;1671244;84;21050;-68
2021/05/17 09:45:39;;;;;;;18.42;4.97;;;;;;;20.27;59.60;98286.07;1686537;82;21070;-69
2021/05/17 09:48:21;;;;;;;11.70;4.03;;;;;;;20.27;59.60;98283.39;1698262;84;21667;-69
2021/05/17 09:51:08;;;;;;;4.45;3.37;;;;;;;20.21;60.04;98284.20;1702972;82;21039;-69
2021/05/17 09:53:41;;;;;;;4.15;3.20;;;;;;;20.16;59.96;98290.71;1715582;82;21122;-67
2021/05/17 09:56:17;;;;;;;;;;;;;;;20.05;59.98;98298.34;1651784;86;21050;-67
2021/05/17 09:58:46;;;;;;;8.85;4.60;;;;;;;19.94;60.59;98298.94;1644537;86;20158;-69
2021/05/17 10:01:19;;;;;;;7.35;3.90;;;;;;;19.81;61.45;98296.51;1707064;82;21063;-68
2021/05/17 10:03:50;;;;;;;4.50;3.92;;;;;;;19.80;62.09;98297.53;1680562;83;21007;-68
2021/05/17 10:06:20;;;;;;;10.50;4.15;;;;;;;19.92;62.00;98299.66;1679739;84;21622;-69
2021/05/17 10:08:46;;;;;;;9.05;4.25;;;;;;;19.87;62.26;98281.47;1715296;82;21073;-69
2021/05/17 10:11:14;;;;;;;4.75;3.80;;;;;;;19.70;62.95;98264.91;1679280;84;21630;-68
2021/05/17 10:13:41;;;;;;;8.95;3.87;;;;;;;19.55;63.75;98248.99;1708913;82;21093;-69
2021/05/17 10:16:12;;;;;;;5.28;3.72;;;;;;;19.34;64.65;98208.97;1689501;82;21011;-69
2021/05/17 10:18:40;;;;;;;7.53;4.28;;;;;;;19.14;65.50;98171.70;1699017;82;21110;-69
2021/05/17 10:21:13;;;;;;;8.88;5.45;;;;;;;19.01;66.18;98133.33;1676898;82;21562;-69
2021/05/17 10:23:41;;;;;;;17.98;5.58;;;;;;;18.78;67.35;98109.02;1690129;82;21613;-69
2021/05/17 10:26:25;;;;;;;7.22;4.10;;;;;;;18.57;68.22;98081.36;1710618;82;21073;-69
2021/05/17 10:28:57;;;;;;;;;;;;;;;18.46;68.66;98057.31;1708264;82;21199;-74
2021/05/17 10:31:24;;;;;;;6.25;4.35;;;;;;;18.29;68.70;98072.08;1699349;82;20955;-74
2021/05/17 10:34:04;;;;;;;4.90;4.17;;;;;;;18.09;69.03;98086.17;1708399;82;22296;-74
2021/05/17 10:37:00;;;;;;;6.58;4.30;;;;;;;18.07;69.27;98070.00;1711255;82;21095;-73
2021/05/17 10:39:37;;;;;;;6.25;4.83;;;;;;;18.04;69.41;98053.84;1685582;85;21089;-73
2021/05/17 10:48:23;;;;;;;7.58;4.60;;;;;;;17.96;70.53;98089.59;1716378;82;21126;-73
2021/05/17 10:51:17;;;;;;;7.70;4.70;;;;;;;17.90;70.33;98090.86;1708257;82;21033;-73
2021/05/17 10:53:58;;;;;;;6.40;4.35;;;;;;;17.91;70.95;98093.86;1704020;82;21144;-73
2021/05/17 11:02:12;;;;;;;16.10;5.33;;;;;;;18.38;71.04;98111.55;1697077;82;21557;-72
2021/05/17 11:04:51;;;;;;;6.42;4.72;;;;;;;18.66;70.01;98120.30;1722713;82;21054;-73
2021/05/17 11:07:52;;;;;;;8.40;4.95;;;;;;;18.79;69.44;98116.84;1688512;84;21038;-72
2021/05/17 11:10:29;;;;;;;7.15;4.47;;;;;;;18.84;69.24;98118.41;1716352;82;21073;-72
2021/05/17 11:12:59;;;;;;;8.03;4.70;;;;;;;18.96;68.82;98115.17;1693402;84;21097;-72
2021/05/17 11:15:28;;;;;;;6.30;4.92;;;;;;;19.16;69.01;98106.66;1704053;82;21022;-74
2021/05/17 11:18:09;;;;;;;6.50;4.97;;;;;;;19.32;68.87;98114.00;1729821;82;21613;-74
2021/05/17 11:20:50;;;;;;;7.33;4.60;;;;;;;19.40;67.82;98113.81;1711562;82;21105;-73
2021/05/17 11:23:34;;;;;;;6.87;4.28;;;;;;;19.59;67.66;98112.17;1701694;84;21124;-73
2021/05/17 11:28:41;;;;;;;6.37;4.35;;;;;;;19.74;65.97;98117.30;1716123;82;21114;-73
2021/05/17 11:31:43;;;;;;;4.35;3.92;;;;;;;19.76;66.21;98117.94;1724776;82;21042;-72
2021/05/17 11:34:19;;;;;;;5.58;4.05;;;;;;;19.76;65.44;98123.30;1688224;84;21023;-72
2021/05/17 11:36:51;;;;;;;4.83;3.92;;;;;;;19.78;64.93;98129.30;1709418;82;21062;-73
2021/05/17 11:40:28;;;;;;;5.53;4.10;;;;;;;19.72;65.39;98131.95;1778001;78;21865;-73
2021/05/17 11:42:58;;;;;;;5.45;4.05;;;;;;;19.65;65.59;98140.00;1737898;80;21049;-73
2021/05/17 11:45:26;;;;;;;4.90;3.55;;;;;;;19.59;65.18;98142.16;1737205;80;21089;-75
2021/05/17 11:47:52;;;;;;;5.10;3.70;;;;;;;19.55;65.02;98140.41;1717101;81;21045;-74
2021/05/17 11:50:20;;;;;;;4.60;3.87;;;;;;;19.52;64.72;98135.47;1724271;82;21102;-73
2021/05/17 11:52:47;;;;;;;5.60;3.95;;;;;;;19.37;65.13;98139.67;1702746;81;21126;-72
2021/05/17 11:55:13;;;;;;;5.65;4.25;;;;;;;19.24;65.60;98137.80;1722714;82;21053;-73
2021/05/17 11:57:41;;;;;;;5.42;3.83;;;;;;;19.10;65.45;98135.60;1707573;83;21037;-73
2021/05/17 12:00:11;;;;;;;6.00;3.70;;;;;;;18.98;65.95;98141.26;1717395;81;21068;-73
2021/05/17 12:02:48;;;;;;;6.05;4.00;;;;;;;19.01;66.28;98150.22;1723958;83;21561;-72
2021/05/17 12:05:15;;;;;;;6.47;4.03;;;;;;;18.94;65.91;98142.17;1727614;82;21050;-72
2021/05/17 12:07:48;;;;;;;5.90;5.05;;;;;;;18.88;66.16;98143.47;1722294;82;21079;-73
2021/05/17 12:10:15;;;;;;;6.17;4.65;;;;;;;18.78;66.05;98142.49;1720192;82;21018;-72
2021/05/17 12:12:42;;;;;;;7.05;4.10;;;;;;;18.73;66.16;98141.74;1732196;82;21052;-72